Union Beach, New Jersey
Current Conditions -  °F | °C
As of 8:35 PM on Sunday 23 Nov 2014 (Local Time) from KLDJ Reporting Station
Clear Clear  
Wind Chill: 50°   Ceiling: Unl
Heat Index: 50°   Visibility: 10mi
Dew Point: 37°   Wind: 0mph
Humidity: 61%   Direction: NA
Pressure: 30.11"   Gusts: NA
Location:  40.4398°N, 74.1836°W
Report Text: KLDJ 240135Z AUTO 00000KT 10SM CLR 10/03 A3011 RMK AO2 T00990028
Loading
Personal Weather Stations






























Interactive Weather Map New forecast layout! Learn more

10-Day Weather Forecast

Advertisements
Track Severe Weather on mobile